Time;durP1;ratioP1;P1;durP2;ratioP2;P2;SDS_P1;SDS_P2;PMS_P1;PMS_P2;Temp;Humidity;BMP_temperature;BMP_pressure;BME280_temperature;BME280_humidity;BME280_pressure;Samples;Min_cycle;Max_cycle;Signal;HPM_P1;HPM_P2
2022/03/11 05:46:53;;;;;;;;;12.25;12.00;;;;;16.60;49.79;100719.06;5079507;27;45417;-74
2022/03/11 05:49:20;;;;;;;;;8.75;8.75;;;;;16.77;49.55;100725.75;5062148;27;45416;-73
2022/03/11 05:51:45;;;;;;;;;11.25;9.50;;;;;16.96;49.21;100721.59;5054224;28;45612;-75
2022/03/11 05:54:11;;;;;;;;;12.00;11.75;;;;;17.22;48.87;100723.97;5062763;28;45479;-73
2022/03/11 05:56:37;;;;;;;;;12.50;10.50;;;;;17.46;49.16;100723.75;5062907;28;47071;-71
2022/03/11 05:59:03;;;;;;;;;10.75;8.75;;;;;17.73;48.88;100721.53;5065605;28;45490;-74
2022/03/11 06:01:29;;;;;;;;;9.75;9.75;;;;;18.01;48.88;100720.06;5064752;28;45439;-74
2022/03/11 06:03:54;;;;;;;;;11.00;11.00;;;;;18.28;48.70;100717.81;5065227;28;46693;-72
2022/03/11 06:06:19;;;;;;;;;8.25;8.25;;;;;18.51;48.32;100715.78;5066589;27;46003;-72
2022/03/11 06:08:45;;;;;;;;;7.00;7.00;;;;;18.73;47.73;100715.72;5065807;28;45469;-74
2022/03/11 06:11:10;;;;;;;;;10.50;8.00;;;;;18.93;47.41;100717.47;5065702;27;45406;-74
2022/03/11 06:13:36;;;;;;;;;8.75;8.75;;;;;19.15;47.47;100710.19;5067503;27;46568;-74
2022/03/11 06:16:03;;;;;;;;;14.00;9.50;;;;;19.33;47.16;100717.56;5066398;27;46388;-73
2022/03/11 06:18:29;;;;;;;;;8.75;8.75;;;;;19.54;46.60;100713.88;5065577;27;45690;-73
2022/03/11 06:20:56;;;;;;;;;7.75;7.75;;;;;19.70;46.48;100719.50;5066117;27;45741;-73
2022/03/11 06:23:21;;;;;;;;;12.25;8.50;;;;;19.87;46.06;100715.22;5064304;28;45489;-73
2022/03/11 06:25:46;;;;;;;;;8.75;8.75;;;;;20.02;46.28;100722.88;5058819;27;46202;-74
2022/03/11 06:28:12;;;;;;;;;9.50;9.50;;;;;20.14;45.65;100721.72;5063780;27;49893;-73
2022/03/11 06:30:37;;;;;;;;;11.25;9.00;;;;;20.27;45.31;100712.47;5062359;27;45825;-72
2022/03/11 06:33:03;;;;;;;;;7.00;7.00;;;;;20.39;45.13;100715.81;5059397;27;45548;-72
2022/03/11 06:35:28;;;;;;;;;9.50;7.75;;;;;20.50;45.48;100707.56;5060627;28;47591;-72
2022/03/11 06:37:54;;;;;;;;;9.25;8.00;;;;;20.60;44.74;100710.19;5063918;28;45566;-72
2022/03/11 06:40:20;;;;;;;;;11.75;10.25;;;;;20.69;45.02;100699.50;5059780;28;49161;-72
2022/03/11 06:42:48;;;;;;;;;11.00;10.25;;;;;20.78;44.72;100694.06;5061617;27;45522;-72
2022/03/11 06:45:15;;;;;;;;;8.75;8.75;;;;;20.85;44.41;100698.84;5054788;28;46363;-72
2022/03/11 06:47:41;;;;;;;;;12.50;9.00;;;;;20.91;43.97;100699.13;5059617;28;45672;-72
2022/03/11 06:50:08;;;;;;;;;8.50;8.50;;;;;20.97;44.50;100686.03;5058105;28;45861;-73
2022/03/11 06:52:33;;;;;;;;;8.00;7.00;;;;;21.03;44.27;100694.38;5059727;28;45493;-72
2022/03/11 06:54:59;;;;;;;;;11.50;9.25;;;;;21.08;43.56;100687.66;5061445;28;46382;-72
2022/03/11 06:57:25;;;;;;;;;11.33;8.00;;;;;21.12;43.91;100687.19;5049286;28;45538;-72
2022/03/11 06:59:50;;;;;;;;;9.33;7.67;;;;;21.16;43.81;100685.03;5045764;28;45776;-76
2022/03/11 07:02:16;;;;;;;;;11.33;11.00;;;;;21.21;44.30;100682.72;5042497;28;45604;-74
2022/03/11 07:04:42;;;;;;;;;13.25;10.50;;;;;21.26;44.05;100680.38;5043004;28;45646;-72
2022/03/11 07:07:08;;;;;;;;;12.33;8.67;;;;;21.31;43.75;100685.34;5052467;28;45668;-74
2022/03/11 07:09:35;;;;;;;;;13.75;12.00;;;;;21.35;43.65;100685.88;5059617;27;45815;-72
2022/03/11 07:12:03;;;;;;;;;15.00;10.25;;;;;21.37;43.84;100689.28;5054544;28;45448;-72
2022/03/11 07:14:35;;;;;;;;;15.25;13.75;;;;;21.39;43.87;100671.06;5042193;28;45438;-72
2022/03/11 07:17:01;;;;;;;;;17.50;15.00;;;;;21.40;43.02;100676.31;5041897;28;45526;-73
2022/03/11 07:19:29;;;;;;;;;17.50;12.25;;;;;21.42;43.57;100670.75;5043726;28;45516;-71
2022/03/11 07:21:56;;;;;;;;;17.75;13.50;;;;;21.42;43.48;100671.59;5050749;28;45657;-72
2022/03/11 07:24:22;;;;;;;;;11.25;11.25;;;;;21.44;43.29;100675.00;5036019;28;45522;-71
2022/03/11 07:26:47;;;;;;;;;14.50;12.25;;;;;21.45;43.12;100674.00;5052029;28;45491;-72
2022/03/11 07:29:12;;;;;;;;;13.00;11.50;;;;;21.48;43.58;100669.25;5045771;28;46170;-73
2022/03/11 07:31:38;;;;;;;;;18.67;13.00;;;;;21.49;43.49;100670.97;5049580;28;45440;-70
2022/03/11 07:34:03;;;;;;;;;11.50;9.75;;;;;21.51;43.60;100669.81;5046951;28;46028;-72
2022/03/11 07:36:30;;;;;;;;;12.67;11.00;;;;;21.53;43.83;100666.94;5048954;28;45498;-72
2022/03/11 07:38:56;;;;;;;;;16.67;13.00;;;;;21.55;43.27;100667.66;5051065;28;45576;-71
2022/03/11 07:41:22;;;;;;;;;17.00;12.00;;;;;21.55;43.38;100665.78;5048944;28;45641;-71
2022/03/11 07:57:49;;;;;;;;;13.25;11.50;;;;;20.66;43.45;100650.28;5073436;27;45576;-73
2022/03/11 08:00:15;;;;;;;;;12.75;9.50;;;;;20.61;43.03;100644.50;5063306;27;45533;-72
2022/03/11 08:02:41;;;;;;;;;13.50;10.75;;;;;20.62;43.58;100646.19;5049729;27;45585;-71
2022/03/11 08:05:14;;;;;;;;;10.25;9.25;;;;;20.64;43.45;100638.78;5062128;27;45526;-71
2022/03/11 08:07:39;;;;;;;;;10.00;9.50;;;;;20.71;43.65;100641.72;5066120;27;46326;-70
2022/03/11 08:10:05;;;;;;;;;13.67;11.33;;;;;20.79;43.24;100644.50;5062330;28;45466;-72
2022/03/11 08:12:30;;;;;;;;;10.67;10.00;;;;;20.85;42.86;100636.81;5056784;28;45461;-71
2022/03/11 08:14:57;;;;;;;;;7.67;7.67;;;;;20.92;43.00;100632.50;5066654;27;45321;-69
2022/03/11 08:17:23;;;;;;;;;11.50;9.75;;;;;20.98;43.00;100637.31;5063084;27;46954;-68
2022/03/11 08:19:49;;;;;;;;;9.33;8.67;;;;;21.03;42.53;100635.00;5067917;28;45714;-71
2022/03/11 08:22:14;;;;;;;;;12.25;10.50;;;;;21.08;42.69;100626.44;5062326;27;45510;-70
2022/03/11 08:24:40;;;;;;;;;12.00;9.00;;;;;21.12;42.66;100622.41;5067122;28;45524;-70
2022/03/11 08:27:05;;;;;;;;;8.67;8.00;;;;;21.17;42.34;100628.19;5080382;27;46102;-71
2022/03/11 08:29:34;;;;;;;;;8.00;8.00;;;;;21.22;42.53;100625.03;5058476;28;45436;-70
2022/03/11 08:31:59;;;;;;;;;9.33;8.33;;;;;21.27;42.42;100624.56;5057811;27;45519;-70
2022/03/11 08:34:25;;;;;;;;;14.33;8.33;;;;;21.31;42.66;100628.66;5063650;27;49945;-69
2022/03/11 08:36:50;;;;;;;;;8.67;7.33;;;;;21.35;42.77;100621.06;5064484;28;46102;-69
2022/03/11 08:39:16;;;;;;;;;13.75;11.00;;;;;21.36;42.75;100617.38;5062563;28;45883;-75
2022/03/11 08:41:42;;;;;;;;;10.67;8.67;;;;;21.30;42.59;100599.97;5052935;27;46137;-76
2022/03/11 08:44:07;;;;;;;;;8.33;8.33;;;;;21.38;42.27;100618.91;5061904;28;49983;-77
2022/03/11 08:46:32;;;;;;;;;8.33;8.33;;;;;21.39;42.83;100615.22;5066228;28;46071;-76
2022/03/11 08:48:58;;;;;;;;;6.67;4.67;;;;;21.40;42.56;100621.44;5061140;27;45401;-77
2022/03/11 08:51:23;;;;;;;;;7.00;7.00;;;;;21.41;42.27;100606.94;5066196;28;45616;-77
2022/03/11 08:53:48;;;;;;;;;8.67;8.67;;;;;21.42;42.15;100608.66;5063104;28;45483;-74
2022/03/11 08:56:15;;;;;;;;;10.00;9.33;;;;;21.42;42.62;100609.50;5070792;27;46021;-74
2022/03/11 08:58:40;;;;;;;;;9.00;7.33;;;;;21.42;42.17;100601.38;5083361;27;45557;-74
2022/03/11 09:01:06;;;;;;;;;8.00;8.00;;;;;21.43;42.18;100613.03;5086679;27;45514;-74
2022/03/11 09:03:31;;;;;;;;;9.00;8.00;;;;;21.43;41.56;100610.34;5092647;27;45761;-74
2022/03/11 09:05:58;;;;;;;;;7.00;5.67;;;;;21.39;40.69;100596.31;5092301;27;45973;-75
2022/03/11 09:08:23;;;;;;;;;5.67;4.00;;;;;21.37;40.60;100594.78;5074549;27;45530;-71
2022/03/11 09:10:49;;;;;;;;;10.67;7.33;;;;;21.36;40.91;100591.22;5072568;28;45776;-73
2022/03/11 09:13:14;;;;;;;;;5.67;5.00;;;;;21.39;41.66;100600.88;5069901;28;45463;-72
2022/03/11 09:15:40;;;;;;;;;7.33;7.00;;;;;21.41;41.36;100593.44;5074057;28;46146;-72
2022/03/11 09:18:05;;;;;;;;;9.00;6.67;;;;;21.44;41.19;100596.69;5071084;27;45635;-72
2022/03/11 09:20:30;;;;;;;;;5.67;5.67;;;;;21.49;41.58;100593.50;5070739;28;45466;-72
2022/03/11 09:22:56;;;;;;;;;11.00;5.33;;;;;21.55;41.41;100589.34;5071452;28;45372;-73
2022/03/11 09:25:21;;;;;;;;;5.33;4.67;;;;;21.63;41.62;100583.13;5055419;28;46061;-74
2022/03/11 09:27:46;;;;;;;;;5.00;5.00;;;;;21.71;41.50;100583.19;5073102;28;45555;-73
2022/03/11 09:30:13;;;;;;;;;6.00;6.00;;;;;21.78;41.59;100578.84;5055472;28;45560;-73
2022/03/11 09:32:39;;;;;;;;;9.00;5.33;;;;;21.88;42.03;100586.84;5074563;28;45737;-73
2022/03/11 09:35:06;;;;;;;;;6.00;6.00;;;;;21.94;41.94;100580.78;5068335;28;46269;-73
2022/03/11 09:37:32;;;;;;;;;6.00;6.00;;;;;22.03;40.96;100565.44;5072458;28;45589;-75
2022/03/11 09:39:57;;;;;;;;;6.00;6.00;;;;;22.05;39.59;100574.25;5072725;27;48329;-73
2022/03/11 09:42:22;;;;;;;;;10.67;7.33;;;;;22.01;39.62;100574.72;5066642;28;45707;-73
2022/03/11 09:44:53;;;;;;;;;3.67;3.00;;;;;21.96;38.98;100581.47;5073982;28;45474;-73
2022/03/11 09:47:20;;;;;;;;;10.67;5.00;;;;;21.94;39.36;100578.09;5068462;28;45473;-71
2022/03/11 09:49:47;;;;;;;;;5.67;5.67;;;;;21.93;38.39;100589.06;5069897;28;45473;-71
2022/03/11 09:52:14;;;;;;;;;4.00;4.00;;;;;21.85;38.13;100590.72;5071764;28;45538;-72
2022/03/11 09:54:39;;;;;;;;;5.00;4.67;;;;;21.79;37.83;100587.81;5057056;28;46360;-72
2022/03/11 09:57:05;;;;;;;;;4.33;4.33;;;;;21.71;38.01;100570.53;5075002;27;45430;-82
2022/03/11 09:59:30;;;;;;;;;11.00;8.00;;;;;21.69;38.24;100563.56;5068923;28;45622;-75
2022/03/11 10:01:57;;;;;;;;;7.67;5.00;;;;;21.73;38.31;100550.66;5066724;27;47787;-75
2022/03/11 10:04:22;;;;;;;;;4.00;3.33;;;;;21.82;38.57;100545.09;5068650;28;45526;-75
2022/03/11 10:06:48;;;;;;;;;7.00;4.00;;;;;21.93;38.56;100538.56;5073068;28;45502;-75
2022/03/11 10:09:30;;;;;;;;;4.67;4.67;;;;;22.07;38.67;100528.16;5071876;28;45440;-75
2022/03/11 10:11:57;;;;;;;;;5.67;5.33;;;;;22.18;38.34;100533.25;5073634;28;45530;-75
2022/03/11 10:14:32;;;;;;;;;5.33;4.00;;;;;22.30;38.64;100524.81;5065916;28;46138;-74
2022/03/11 10:16:59;;;;;;;;;6.00;5.33;;;;;22.38;38.54;100538.38;5069296;28;45542;-74
2022/03/11 10:19:24;;;;;;;;;6.00;4.33;;;;;22.45;39.01;100531.28;5067338;28;45425;-75
2022/03/11 10:21:50;;;;;;;;;4.00;4.00;;;;;22.51;38.54;100521.66;5068605;28;45659;-75
2022/03/11 10:24:18;;;;;;;;;8.67;6.00;;;;;22.58;39.25;100517.31;5071509;28;46217;-75
2022/03/11 10:26:54;;;;;;;;;4.67;4.67;;;;;22.62;38.90;100525.91;5075385;27;45569;-74
2022/03/11 10:29:27;;;;;;;;;4.00;4.00;;;;;22.68;38.89;100544.19;5076340;27;45577;-74
2022/03/11 10:31:58;;;;;;;;;3.67;3.67;;;;;22.75;39.00;100550.63;5067843;28;45687;-74
2022/03/11 10:34:27;;;;;;;;;3.00;3.00;;;;;22.80;39.39;100550.09;5061917;28;46224;-74
2022/03/11 10:37:01;;;;;;;;;5.00;4.00;;;;;22.86;39.49;100552.16;5069246;28;45575;-74
2022/03/11 10:39:29;;;;;;;;;3.00;3.00;;;;;22.92;39.50;100556.03;5068626;28;45448;-74
2022/03/11 10:41:58;;;;;;;;;8.33;5.33;;;;;22.98;39.64;100558.09;5070529;28;45440;-74
2022/03/11 10:44:26;;;;;;;;;3.00;3.00;;;;;23.06;39.69;100550.97;5069170;28;46324;-74
2022/03/11 10:46:53;;;;;;;;;4.33;4.00;;;;;23.11;39.16;100546.75;5067110;28;45432;-74
2022/03/11 10:49:32;;;;;;;;;5.33;4.33;;;;;23.15;38.95;100549.94;5067632;28;45452;-74
2022/03/11 10:51:59;;;;;;;;;9.00;4.67;;;;;23.11;37.91;100545.88;5047390;28;45538;-76
2022/03/11 10:54:26;;;;;;;;;5.00;5.00;;;;;23.12;38.45;100547.56;5062961;28;46981;-76
2022/03/11 10:56:51;;;;;;;;;5.67;5.67;;;;;23.12;38.53;100542.16;5063562;28;45770;-76
2022/03/11 10:59:28;;;;;;;;;4.33;4.00;;;;;23.17;38.76;100542.47;5065941;28;45863;-76
2022/03/11 11:01:57;;;;;;;;;7.00;5.00;;;;;23.19;38.48;100556.72;5070034;28;45424;-76
2022/03/11 11:04:23;;;;;;;;;8.33;5.67;;;;;23.23;37.95;100554.50;5075234;27;46377;-76
2022/03/11 11:06:49;;;;;;;;;4.00;4.00;;;;;23.15;37.61;100563.47;5071102;28;45335;-76
2022/03/11 11:09:17;;;;;;;;;6.00;6.00;;;;;23.07;37.36;100563.47;5069109;28;45371;-76
2022/03/11 11:11:43;;;;;;;;;7.00;4.00;;;;;22.96;37.82;100580.88;5065083;28;46550;-76
2022/03/11 11:14:10;;;;;;;;;4.67;3.33;;;;;22.86;37.81;100576.50;5065851;28;45616;-78
2022/03/11 11:16:40;;;;;;;;;6.33;5.00;;;;;22.80;37.72;100560.09;5065448;28;45442;-77
2022/03/11 13:16:52;;;;;;;;;9.00;9.00;;;;;17.78;46.76;100542.13;5062721;27;45663;-76
2022/03/11 13:19:17;;;;;;;;;7.25;6.00;;;;;17.94;46.53;100544.31;5061256;27;46621;-76
2022/03/11 13:21:43;;;;;;;;;6.75;6.75;;;;;18.17;46.81;100554.88;5068034;28;45396;-76
2022/03/11 13:24:08;;;;;;;;;11.00;7.00;;;;;18.40;46.67;100546.59;5060371;27;45477;-76
2022/03/11 13:26:34;;;;;;;;;9.50;7.50;;;;;18.65;46.63;100550.59;5063398;28;45419;-76
2022/03/11 13:29:00;;;;;;;;;8.75;6.75;;;;;18.91;46.52;100543.78;5065096;28;45933;-75
2022/03/11 13:31:27;;;;;;;;;9.25;7.00;;;;;19.18;46.22;100542.22;5066523;28;45591;-76
2022/03/11 13:33:59;;;;;;;;;5.75;5.00;;;;;19.46;46.02;100542.31;5064143;28;45594;-76
2022/03/11 13:36:30;;;;;;;;;8.25;6.00;;;;;19.73;45.87;100541.50;5066201;28;45441;-76
2022/03/11 13:39:07;;;;;;;;;8.00;5.00;;;;;20.00;45.47;100537.13;5066987;28;45470;-75
2022/03/11 13:41:50;;;;;;;;;7.00;5.25;;;;;20.26;44.99;100530.19;5061853;28;45323;-80
2022/03/11 13:44:33;;;;;;;;;9.75;6.25;;;;;20.51;45.11;100535.84;5052345;27;45542;-75
2022/03/11 13:47:04;;;;;;;;;7.50;5.75;;;;;20.74;44.53;100528.16;5065464;27;46141;-77
2022/03/11 13:49:43;;;;;;;;;8.00;5.00;;;;;20.97;44.24;100534.94;5064648;27;45460;-75
2022/03/11 13:52:12;;;;;;;;;5.00;5.00;;;;;21.17;44.54;100531.03;5062617;28;45858;-76
2022/03/11 13:54:40;;;;;;;;;5.33;5.00;;;;;21.37;43.89;100535.41;5066667;28;45645;-81
2022/03/11 13:57:26;;;;;;;;;5.33;5.00;;;;;21.52;43.38;100536.50;5066633;27;50692;-78
2022/03/11 13:59:54;;;;;;;;;6.67;5.00;;;;;21.69;43.35;100523.91;5067100;28;45391;-76
2022/03/11 14:02:22;;;;;;;;;7.33;6.33;;;;;21.83;43.14;100533.28;5065738;27;45549;-75
2022/03/11 14:05:06;;;;;;;;;8.00;8.00;;;;;22.00;43.36;100527.09;5057970;28;45673;-76
2022/03/11 14:07:31;;;;;;;;;6.33;4.00;;;;;22.14;42.55;100537.28;5062690;28;45986;-73
2022/03/11 14:09:57;;;;;;;;;7.33;7.00;;;;;22.27;42.99;100525.16;5061398;27;45508;-75
2022/03/11 14:12:25;;;;;;;;;12.33;9.33;;;;;22.36;42.39;100527.72;5064580;28;45811;-75
2022/03/11 14:14:50;;;;;;;;;11.33;9.00;;;;;22.46;42.53;100519.47;5064515;27;45794;-76
2022/03/11 14:17:29;;;;;;;;;8.67;7.00;;;;;22.56;42.23;100526.59;5063679;27;46115;-76
2022/03/11 14:19:54;;;;;;;;;7.33;5.33;;;;;22.62;42.01;100529.50;5064429;28;46808;-76
2022/03/11 14:22:19;;;;;;;;;6.67;5.67;;;;;22.65;41.99;100517.47;5065985;28;45726;-77
2022/03/11 14:24:45;;;;;;;;;5.00;4.67;;;;;22.73;41.99;100527.47;5064187;28;45608;-75
2022/03/11 14:27:17;;;;;;;;;6.67;6.67;;;;;22.79;42.17;100525.91;5058470;28;47151;-76
2022/03/11 14:29:44;;;;;;;;;7.67;5.00;;;;;22.84;41.84;100520.88;5052438;28;45700;-75
2022/03/11 14:32:09;;;;;;;;;7.67;7.00;;;;;22.89;41.89;100524.75;5050718;28;45542;-77
2022/03/11 14:34:35;;;;;;;;;6.00;6.00;;;;;22.95;41.94;100522.38;5048800;28;45709;-76
2022/03/11 14:37:00;;;;;;;;;5.33;5.00;;;;;23.03;42.33;100519.66;5049588;28;45412;-77
2022/03/11 14:39:26;;;;;;;;;7.00;7.00;;;;;23.12;42.19;100526.75;5049316;28;45498;-76
2022/03/11 14:41:52;;;;;;;;;7.00;5.67;;;;;23.18;41.98;100527.94;5048212;28;45485;-75
2022/03/11 14:44:17;;;;;;;;;7.33;5.33;;;;;23.26;42.07;100530.63;5045444;28;45491;-76
2022/03/11 14:46:43;;;;;;;;;7.33;6.00;;;;;23.33;42.28;100527.28;5051305;28;45391;-75
2022/03/11 14:49:08;;;;;;;;;5.33;4.67;;;;;23.41;41.47;100548.91;5049622;28;46773;-76
2022/03/11 14:51:34;;;;;;;;;9.00;8.00;;;;;23.48;41.77;100593.25;5053121;28;45505;-76
2022/03/11 14:54:00;;;;;;;;;9.00;7.00;;;;;23.53;41.86;100582.75;5045643;28;45537;-76
2022/03/11 14:56:26;;;;;;;;;6.67;5.33;;;;;23.61;42.25;100597.28;5046957;28;46147;-74
2022/03/11 14:58:51;;;;;;;;;8.00;7.67;;;;;23.65;41.36;100602.19;5049207;28;45565;-73
2022/03/11 15:01:16;;;;;;;;;5.67;5.00;;;;;23.68;41.42;100607.28;5047960;28;45462;-73
2022/03/11 15:03:42;;;;;;;;;7.67;6.00;;;;;23.73;41.20;100611.31;5051520;28;45546;-74
2022/03/11 15:06:07;;;;;;;;;6.00;6.00;;;;;23.73;41.16;100604.03;5051164;28;46136;-74
2022/03/11 15:08:32;;;;;;;;;7.00;5.33;;;;;23.74;40.89;100604.91;5050427;28;45485;-74
2022/03/11 15:10:58;;;;;;;;;5.00;4.67;;;;;23.73;40.93;100595.06;5051699;28;45557;-75
2022/03/11 15:13:24;;;;;;;;;9.00;6.00;;;;;23.72;40.72;100601.50;5047519;28;45403;-75
2022/03/11 15:15:49;;;;;;;;;5.33;4.00;;;;;23.69;40.34;100603.53;5043276;28;46191;-77
2022/03/11 15:58:44;;;;;;;;;7.50;6.75;;;;;20.26;44.33;100594.88;4988231;27;45462;-73
2022/03/11 16:01:09;;;;;;;;;9.33;7.67;;;;;20.41;44.29;100590.66;4987974;27;45561;-73
2022/03/11 16:03:35;;;;;;;;;8.75;6.00;;;;;20.61;44.41;100598.66;5021823;27;45544;-74
2022/03/11 16:06:00;;;;;;;;;8.00;6.00;;;;;20.85;44.05;100596.34;4987790;27;45394;-73
2022/03/11 16:08:25;;;;;;;;;7.00;4.00;;;;;21.06;43.99;100596.91;5007852;27;46094;-71
2022/03/11 16:10:52;;;;;;;;;5.33;4.00;;;;;21.26;43.95;100602.09;5029368;27;45596;-72
2022/03/11 16:13:18;;;;;;;;;3.67;3.67;;;;;21.46;44.36;100597.38;5022818;27;45331;-73
2022/03/11 16:15:44;;;;;;;;;5.67;4.00;;;;;21.67;43.93;100589.91;5008188;27;45491;-72
2022/03/11 16:18:09;;;;;;;;;4.00;4.00;;;;;21.84;43.61;100593.59;4984609;28;45539;-73
2022/03/11 16:20:34;;;;;;;;;7.33;4.00;;;;;21.98;43.63;100590.28;5000318;27;45632;-75
2022/03/11 16:23:00;;;;;;;;;4.00;4.00;;;;;22.15;43.00;100593.03;5031156;27;45581;-75
2022/03/11 16:25:27;;;;;;;;;13.33;8.33;;;;;22.24;42.60;100589.34;5027978;27;45404;-78
2022/03/11 16:27:53;;;;;;;;;11.00;5.00;;;;;22.31;42.03;100586.00;4975780;28;46094;-75
2022/03/11 16:30:18;;;;;;;;;6.00;6.00;;;;;22.34;42.04;100586.53;4979575;27;45460;-75
2022/03/11 16:32:44;;;;;;;;;9.33;7.67;;;;;22.36;41.71;100589.06;4988858;27;45439;-73
2022/03/11 16:35:10;;;;;;;;;8.00;5.67;;;;;22.35;41.50;100593.63;4984963;27;45562;-75
2022/03/11 16:37:35;;;;;;;;;6.67;4.00;;;;;22.40;41.87;100616.63;4975620;28;47083;-73
2022/03/11 16:40:03;;;;;;;;;6.67;5.00;;;;;22.40;41.95;100601.22;4976909;27;45728;-75
2022/03/11 16:42:28;;;;;;;;;7.00;5.00;;;;;22.41;41.22;100608.34;5001020;27;46480;-76
2022/03/11 16:44:54;;;;;;;;;6.67;3.00;;;;;22.40;40.88;100614.75;4976700;27;45620;-76
2022/03/11 16:47:19;;;;;;;;;4.67;4.00;;;;;22.42;41.35;100622.69;4973560;28;45517;-74
2022/03/11 16:49:45;;;;;;;;;5.67;3.33;;;;;22.40;40.52;100616.63;4995798;27;45470;-75
2022/03/11 16:52:12;;;;;;;;;5.33;4.00;;;;;22.40;40.55;100597.69;4996754;27;45519;-76
2022/03/11 16:54:39;;;;;;;;;4.00;4.00;;;;;22.36;41.33;100600.72;4988481;27;45415;-76
2022/03/11 16:57:06;;;;;;;;;7.00;4.00;;;;;22.35;40.81;100620.66;4981275;27;46302;-72
2022/03/11 16:59:32;;;;;;;;;3.67;3.33;;;;;22.34;41.04;100627.09;4979232;28;45487;-76
2022/03/11 17:01:57;;;;;;;;;4.67;3.00;;;;;22.33;41.07;100621.84;4980384;27;45511;-74
2022/03/11 17:04:23;;;;;;;;;5.67;5.00;;;;;22.33;41.56;100629.94;4995649;27;45621;-74
2022/03/11 17:06:48;;;;;;;;;7.67;5.00;;;;;22.33;41.36;100635.34;4975716;28;45887;-74
2022/03/11 17:09:14;;;;;;;;;6.67;5.33;;;;;22.37;42.08;100647.53;4991108;28;50380;-75
2022/03/11 17:11:41;;;;;;;;;4.67;4.00;;;;;22.41;42.25;100635.38;4962931;28;45571;-72
2022/03/11 17:14:10;;;;;;;;;5.33;5.00;;;;;22.47;41.84;100639.28;4964394;28;45383;-74
2022/03/11 17:16:36;;;;;;;;;5.67;5.67;;;;;22.50;41.99;100631.72;4961778;28;46346;-73
2022/03/11 17:19:03;;;;;;;;;7.33;4.33;;;;;22.53;42.11;100624.25;4982483;28;45507;-73
